createdAt,value
2019-01-26T00:01:50.389Z,64.53
2019-01-26T00:04:02.980Z,63.43
2019-01-26T00:06:19.890Z,59.27
2019-01-26T00:08:30.260Z,62.60
2019-01-26T00:10:38.399Z,60.63
2019-01-26T00:12:44.405Z,51.30
2019-01-26T00:14:51.160Z,57.87
2019-01-26T00:16:56.282Z,53.03
2019-01-26T00:19:09.292Z,52.37
2019-01-26T00:21:16.936Z,50.10
2019-01-26T00:23:22.123Z,51.70
2019-01-26T00:25:29.382Z,50.60
2019-01-26T00:27:34.657Z,40.93
2019-01-26T00:29:39.918Z,47.07
2019-01-26T00:31:44.713Z,47.90
2019-01-26T00:33:53.161Z,46.80
2019-01-26T00:35:58.338Z,46.90
2019-01-26T00:38:03.231Z,51.00
2019-01-26T00:40:09.308Z,46.73
2019-01-26T00:45:28.870Z,38.10
2019-01-26T00:47:38.674Z,44.20
2019-01-26T00:49:43.501Z,45.87
2019-01-26T00:51:48.280Z,40.47
2019-01-26T00:53:53.463Z,40.90
2019-01-26T00:55:58.710Z,43.77
2019-01-26T00:58:03.510Z,45.33
2019-01-26T01:00:13.917Z,42.77
2019-01-26T01:02:18.764Z,41.97
2019-01-26T01:04:26.591Z,42.53
2019-01-26T01:06:31.384Z,37.50
2019-01-26T01:08:37.427Z,45.03
2019-01-26T01:10:42.238Z,44.03
2019-01-26T01:12:48.443Z,37.17
2019-01-26T01:14:54.958Z,45.57
2019-01-26T01:17:00.079Z,35.83
2019-01-26T01:19:07.640Z,40.83
2019-01-26T01:21:21.837Z,38.17
2019-01-26T01:23:33.685Z,35.63
2019-01-26T01:25:40.869Z,37.03
2019-01-26T01:27:46.288Z,41.70
2019-01-26T01:29:51.179Z,39.37
2019-01-26T01:32:03.478Z,34.90
2019-01-26T01:34:13.439Z,35.90
2019-01-26T01:36:18.222Z,36.20
2019-01-26T01:38:30.282Z,36.13
2019-01-26T01:40:52.858Z,34.57
2019-01-26T01:43:00.477Z,35.97
2019-01-26T01:45:15.318Z,41.77
2019-01-26T01:47:22.700Z,44.10
2019-01-26T01:49:28.938Z,36.17
2019-01-26T01:51:34.287Z,39.80
2019-01-26T01:53:47.546Z,37.20
2019-01-26T01:56:20.931Z,35.77
2019-01-26T01:58:30.108Z,39.10
2019-01-26T02:00:38.122Z,36.50
2019-01-26T02:02:54.438Z,34.07
2019-01-26T02:05:02.855Z,29.63
2019-01-26T02:07:35.799Z,32.43
2019-01-26T02:09:55.572Z,40.17
2019-01-26T02:12:03.533Z,37.70
2019-01-26T02:14:09.827Z,37.57
2019-01-26T02:16:21.091Z,41.67
2019-01-26T02:18:32.657Z,38.57
2019-01-26T02:20:45.248Z,40.30
2019-01-26T02:22:52.772Z,42.67
2019-01-26T02:25:03.118Z,39.23
2019-01-26T02:27:12.541Z,38.63
2019-01-26T02:29:23.411Z,37.07
2019-01-26T02:31:29.991Z,37.97
2019-01-26T02:33:38.351Z,34.73
2019-01-26T02:35:47.658Z,41.10
2019-01-26T02:37:55.422Z,35.73
2019-01-26T02:40:03.348Z,37.20
2019-01-26T02:44:45.528Z,34.20
2019-01-26T02:46:57.924Z,32.77
2019-01-26T02:49:02.658Z,31.73
2019-01-26T02:51:10.152Z,32.37
2019-01-26T02:53:20.621Z,32.83
2019-01-26T02:55:29.358Z,33.97
2019-01-26T02:57:39.678Z,26.37
2019-01-26T02:59:49.245Z,30.50
2019-01-26T03:01:54.630Z,30.60
2019-01-26T03:04:06.806Z,25.87
2019-01-26T03:06:12.908Z,30.17
2019-01-26T03:08:24.200Z,29.57
2019-01-26T03:10:32.022Z,29.67
2019-01-26T03:12:38.143Z,30.43
2019-01-26T03:14:46.917Z,26.90
2019-01-26T03:16:56.297Z,35.37
2019-01-26T03:21:26.899Z,26.37
2019-01-26T03:23:31.703Z,25.43
2019-01-26T03:25:36.598Z,29.37
2019-01-26T03:27:42.499Z,28.67
2019-01-26T03:29:50.062Z,27.17
2019-01-26T03:31:54.847Z,26.07
2019-01-26T03:33:59.646Z,23.13
2019-01-26T03:36:06.035Z,21.80
2019-01-26T03:38:17.370Z,23.83
2019-01-26T03:40:22.775Z,26.27
2019-01-26T03:42:27.614Z,24.73
2019-01-26T03:46:54.282Z,22.00
2019-01-26T03:49:12.181Z,22.43
2019-01-26T03:51:29.071Z,20.33
2019-01-26T03:53:34.156Z,20.37
2019-01-26T03:55:39.083Z,23.17
2019-01-26T03:58:02.998Z,21.70
2019-01-26T04:00:27.379Z,17.70
2019-01-26T04:02:44.038Z,20.83
2019-01-26T04:05:00.330Z,20.63
2019-01-26T04:07:17.441Z,18.93
2019-01-26T04:09:33.442Z,21.50
2019-01-26T04:11:49.586Z,21.43
2019-01-26T04:14:06.014Z,19.90
2019-01-26T04:16:22.921Z,21.27
2019-01-26T04:18:39.043Z,20.30
2019-01-26T04:20:55.769Z,20.50
2019-01-26T04:23:12.358Z,22.90
2019-01-26T04:25:28.818Z,20.40
2019-01-26T04:27:51.693Z,18.97
2019-01-26T04:30:07.929Z,21.40
2019-01-26T04:32:26.300Z,20.03
2019-01-26T04:34:43.624Z,20.97
2019-01-26T04:37:05.065Z,19.77
2019-01-26T04:39:22.647Z,19.97
2019-01-26T04:41:39.759Z,20.10
2019-01-26T04:43:58.267Z,22.67
2019-01-26T04:46:17.869Z,19.77
2019-01-26T04:48:34.700Z,21.37
2019-01-26T04:50:51.024Z,19.53
2019-01-26T04:53:07.253Z,20.77
2019-01-26T04:55:35.356Z,21.53
2019-01-26T04:57:58.592Z,18.23
2019-01-26T05:00:17.970Z,20.63
2019-01-26T05:02:38.359Z,20.27
2019-01-26T05:04:58.593Z,18.53
2019-01-26T05:07:18.361Z,17.07
2019-01-26T05:09:35.292Z,17.53
2019-01-26T05:11:51.514Z,18.33
2019-01-26T05:14:07.818Z,19.17
2019-01-26T05:16:24.495Z,18.77
2019-01-26T05:18:41.216Z,17.03
2019-01-26T05:20:57.269Z,16.00
2019-01-26T05:23:13.839Z,16.10
2019-01-26T05:25:30.703Z,15.07
2019-01-26T05:27:46.863Z,13.90
2019-01-26T05:30:03.099Z,16.27
2019-01-26T05:32:19.190Z,13.17
2019-01-26T05:34:35.610Z,14.07
2019-01-26T05:36:51.736Z,13.40
2019-01-26T05:39:07.790Z,14.73
2019-01-26T05:41:24.103Z,12.77
2019-01-26T05:43:43.303Z,13.40
2019-01-26T05:45:59.974Z,13.00
2019-01-26T05:48:16.686Z,12.53
2019-01-26T05:50:33.608Z,12.87
2019-01-26T05:52:49.981Z,11.43
2019-01-26T05:55:06.262Z,13.07
2019-01-26T05:57:22.411Z,13.10
2019-01-26T05:59:38.594Z,11.63
2019-01-26T06:01:54.972Z,15.83
2019-01-26T06:04:11.140Z,12.27
2019-01-26T06:06:27.435Z,13.90
2019-01-26T06:08:44.292Z,10.80
2019-01-26T06:11:01.166Z,11.43
2019-01-26T06:13:17.362Z,12.53
2019-01-26T06:15:33.945Z,12.03
2019-01-26T06:17:55.116Z,11.00
2019-01-26T06:20:14.004Z,13.03
2019-01-26T06:22:31.627Z,12.00
2019-01-26T06:24:47.958Z,11.73
2019-01-26T06:27:04.750Z,10.70
2019-01-26T06:29:21.458Z,13.23
2019-01-26T06:31:37.513Z,14.50
2019-01-26T06:33:54.833Z,12.80
2019-01-26T06:36:11.160Z,14.87
2019-01-26T06:38:27.208Z,16.43
2019-01-26T06:40:44.631Z,12.70
2019-01-26T06:43:00.747Z,16.27
2019-01-26T06:45:17.493Z,16.23
2019-01-26T06:47:37.214Z,16.43
2019-01-26T06:52:47.869Z,17.03
2019-01-26T06:55:04.484Z,16.63
2019-01-26T06:57:20.898Z,19.10
2019-01-26T06:59:37.440Z,18.50
2019-01-26T07:01:56.697Z,16.93
2019-01-26T07:04:18.954Z,16.53
2019-01-26T07:06:45.237Z,17.17
2019-01-26T07:09:01.255Z,19.83
2019-01-26T07:11:17.569Z,21.90
2019-01-26T07:13:33.743Z,18.60
2019-01-26T07:15:50.319Z,20.33
2019-01-26T07:18:09.542Z,21.27
2019-01-26T07:20:25.209Z,19.43
2019-01-26T07:22:45.189Z,18.20
2019-01-26T07:25:01.923Z,22.03
2019-01-26T07:27:27.389Z,18.13
2019-01-26T07:29:46.760Z,23.10
2019-01-26T07:32:03.041Z,19.53
2019-01-26T07:34:19.864Z,23.73
2019-01-26T07:36:36.502Z,21.43
2019-01-26T07:38:52.777Z,39.43
2019-01-26T07:41:09.425Z,67.73
2019-01-26T07:43:25.525Z,37.13
2019-01-26T07:45:47.993Z,45.93
2019-01-26T07:48:04.116Z,27.17
2019-01-26T07:50:29.255Z,59.37
2019-01-26T07:52:47.405Z,43.73
2019-01-26T07:55:04.315Z,45.70
2019-01-26T07:57:20.603Z,20.67
2019-01-26T07:59:40.251Z,19.70
2019-01-26T08:01:56.643Z,19.93
2019-01-26T08:09:02.440Z,17.33
2019-01-26T08:11:16.783Z,20.27
2019-01-26T08:13:36.390Z,18.63
2019-01-26T08:15:53.047Z,18.17
2019-01-26T08:20:29.308Z,15.20
2019-01-26T08:22:46.095Z,17.40
2019-01-26T08:25:03.624Z,17.20
2019-01-26T08:27:19.455Z,15.60
2019-01-26T08:29:43.198Z,14.77
2019-01-26T08:31:59.630Z,14.17
2019-01-26T08:34:15.599Z,16.00
2019-01-26T08:38:57.561Z,12.10
2019-01-26T08:41:14.159Z,11.70
2019-01-26T08:43:18.986Z,11.30
2019-01-26T08:45:51.879Z,13.50
2019-01-26T08:48:15.990Z,12.87
2019-01-26T08:50:24.676Z,9.90
2019-01-26T08:52:48.542Z,11.67
2019-01-26T08:55:18.322Z,12.33
2019-01-26T08:57:34.038Z,15.03
2019-01-26T08:59:52.771Z,12.47
2019-01-26T09:02:27.631Z,12.67
2019-01-26T09:04:44.170Z,12.93
2019-01-26T09:09:36.643Z,11.70
2019-01-26T09:14:25.787Z,13.17
2019-01-26T09:16:42.399Z,11.57
2019-01-26T09:19:10.754Z,11.30
2019-01-26T09:21:28.720Z,11.47
2019-01-26T09:23:44.950Z,11.43
2019-01-26T09:26:01.193Z,10.53
2019-01-26T09:28:12.107Z,11.57
2019-01-26T09:30:35.960Z,13.97
2019-01-26T09:32:52.494Z,10.27
2019-01-26T09:35:10.548Z,11.33
2019-01-26T09:37:30.320Z,10.80
2019-01-26T09:39:52.420Z,13.33
2019-01-26T09:42:08.652Z,11.00
2019-01-26T09:44:25.116Z,10.47
2019-01-26T09:46:44.243Z,12.60
2019-01-26T09:49:01.008Z,11.27
2019-01-26T09:51:06.234Z,12.33
2019-01-26T09:55:55.824Z,10.57
2019-01-26T10:00:48.781Z,11.70
2019-01-26T10:03:07.550Z,8.80
2019-01-26T10:05:14.341Z,12.57
2019-01-26T10:07:38.209Z,7.87
2019-01-26T10:10:10.009Z,8.93
2019-01-26T10:12:26.875Z,10.17
2019-01-26T10:15:04.760Z,9.43
2019-01-26T10:16:57.243Z,11.07
2019-01-26T10:19:40.853Z,9.50
2019-01-26T10:21:57.969Z,9.23
2019-01-26T10:24:14.405Z,9.83
2019-01-26T10:26:31.084Z,8.87
2019-01-26T10:28:47.384Z,10.17
2019-01-26T10:31:13.813Z,9.33
2019-01-26T10:36:36.229Z,10.60
2019-01-26T10:39:11.454Z,9.30
2019-01-26T10:41:34.601Z,11.10
2019-01-26T10:43:54.341Z,8.77
2019-01-26T10:46:12.313Z,7.93
2019-01-26T10:48:30.687Z,8.77
2019-01-26T10:53:15.563Z,8.97
2019-01-26T10:55:20.425Z,10.63
2019-01-26T11:03:42.989Z,8.50
2019-01-26T11:05:56.511Z,8.63
2019-01-26T11:08:20.150Z,9.17
2019-01-26T11:10:49.954Z,8.90
2019-01-26T11:13:13.828Z,9.60
2019-01-26T11:15:30.006Z,10.10
2019-01-26T11:20:07.177Z,10.07
2019-01-26T11:22:35.584Z,11.17
2019-01-26T11:24:45.278Z,11.40
2019-01-26T11:27:42.123Z,9.43
2019-01-26T11:30:03.805Z,12.47
2019-01-26T11:32:20.673Z,9.87
2019-01-26T11:34:38.595Z,8.93
2019-01-26T11:42:26.355Z,13.63
2019-01-26T11:45:04.546Z,9.47
2019-01-26T11:47:12.934Z,12.53
2019-01-26T11:52:11.023Z,10.77
2019-01-26T11:58:53.946Z,11.57
2019-01-26T12:06:51.383Z,13.97
2019-01-26T12:09:29.295Z,11.87
2019-01-26T12:11:46.032Z,11.63
2019-01-26T12:14:05.707Z,11.83
2019-01-26T12:16:47.901Z,13.37
2019-01-26T12:19:05.860Z,13.60
2019-01-26T12:21:22.853Z,13.90
2019-01-26T12:23:40.400Z,15.07
2019-01-26T12:25:59.318Z,14.23
2019-01-26T12:28:16.215Z,13.93
2019-01-26T12:32:40.308Z,12.33
2019-01-26T12:34:46.381Z,12.43
2019-01-26T12:37:03.918Z,14.30
2019-01-26T12:39:16.686Z,13.47
2019-01-26T12:41:33.525Z,13.17
2019-01-26T12:43:50.252Z,12.33
2019-01-26T12:46:06.868Z,12.67
2019-01-26T12:48:25.898Z,13.03
2019-01-26T12:50:42.171Z,11.47
2019-01-26T12:52:58.487Z,13.43
2019-01-26T12:55:17.767Z,12.40
2019-01-26T12:57:34.626Z,11.13
2019-01-26T12:59:58.487Z,11.43
2019-01-26T13:02:03.342Z,10.57
2019-01-26T13:06:23.375Z,12.63
2019-01-26T13:08:47.189Z,12.10
2019-01-26T13:11:04.123Z,11.33
2019-01-26T13:13:20.340Z,12.07
2019-01-26T13:15:25.163Z,13.00
2019-01-26T13:17:49.307Z,13.50
2019-01-26T13:19:54.130Z,15.23
2019-01-26T13:22:10.471Z,15.30
2019-01-26T13:24:27.942Z,12.47
2019-01-26T13:26:45.540Z,13.30
2019-01-26T13:29:05.424Z,13.83
2019-01-26T13:31:23.477Z,13.87
2019-01-26T13:33:40.316Z,14.63
2019-01-26T13:35:56.455Z,14.50
2019-01-26T13:38:20.331Z,12.63
2019-01-26T13:41:03.183Z,12.47
2019-01-26T13:43:10.671Z,13.00
2019-01-26T13:45:16.065Z,10.53
2019-01-26T13:47:37.899Z,10.47
2019-01-26T13:49:52.040Z,12.83
2019-01-26T13:52:08.339Z,8.67
2019-01-26T13:54:27.754Z,9.53
2019-01-26T13:56:44.660Z,9.87
2019-01-26T13:59:02.504Z,9.10
2019-01-26T14:01:19.510Z,7.63
2019-01-26T14:03:35.837Z,8.40
2019-01-26T14:05:40.765Z,9.00
2019-01-26T14:07:57.086Z,8.90
2019-01-26T14:13:02.438Z,9.03
2019-01-26T14:15:18.899Z,8.13
2019-01-26T14:17:38.462Z,8.23
2019-01-26T14:19:55.125Z,8.90
2019-01-26T14:22:11.970Z,9.77
2019-01-26T14:24:28.556Z,8.03
2019-01-26T14:26:49.685Z,10.00
2019-01-26T14:29:26.678Z,8.40
2019-01-26T14:31:43.553Z,9.13
2019-01-26T14:34:02.922Z,10.20
2019-01-26T14:36:20.186Z,8.73
2019-01-26T14:38:41.055Z,10.77
2019-01-26T14:40:57.419Z,9.47
2019-01-26T14:43:14.044Z,8.70
2019-01-26T14:45:20.649Z,8.87
2019-01-26T14:47:45.804Z,9.07
2019-01-26T14:50:08.978Z,9.23
2019-01-26T14:52:25.043Z,9.10
2019-01-26T14:59:41.440Z,11.13
2019-01-26T15:02:04.639Z,9.83
2019-01-26T15:04:30.245Z,11.27
2019-01-26T15:07:17.638Z,10.77
2019-01-26T15:09:34.046Z,11.57
2019-01-26T15:11:50.633Z,12.03
2019-01-26T15:14:07.223Z,8.57
2019-01-26T15:16:23.500Z,9.57
2019-01-26T15:18:39.826Z,10.43
2019-01-26T15:20:45.512Z,10.03
2019-01-26T15:23:09.516Z,9.60
2019-01-26T15:25:33.365Z,9.10
2019-01-26T15:27:49.367Z,11.27
2019-01-26T15:30:05.586Z,9.97
2019-01-26T15:32:24.323Z,10.63
2019-01-26T15:34:39.953Z,9.60
2019-01-26T15:36:47.328Z,10.97
2019-01-26T15:39:23.323Z,12.03
2019-01-26T15:41:40.222Z,9.93
2019-01-26T15:44:06.827Z,12.77
2019-01-26T15:46:30.858Z,9.20
2019-01-26T15:48:56.582Z,9.50
2019-01-26T15:51:22.837Z,8.87
2019-01-26T15:53:39.387Z,8.70
2019-01-26T15:58:42.754Z,7.73
2019-01-26T16:00:50.099Z,9.63
2019-01-26T16:03:04.030Z,10.93
2019-01-26T16:05:47.013Z,9.63
2019-01-26T16:07:54.336Z,10.63
2019-01-26T16:10:14.384Z,11.37
2019-01-26T16:12:19.278Z,10.37
2019-01-26T16:14:24.091Z,9.10
2019-01-26T16:16:47.906Z,10.87
2019-01-26T16:18:53.016Z,10.70
2019-01-26T16:21:18.230Z,11.67
2019-01-26T16:23:42.144Z,11.33
2019-01-26T16:25:47.280Z,11.07
2019-01-26T16:28:50.224Z,14.80
2019-01-26T16:31:18.194Z,10.83
2019-01-26T16:33:34.391Z,16.47
2019-01-26T16:35:53.403Z,13.23
2019-01-26T16:38:15.028Z,12.37
2019-01-26T16:40:33.276Z,12.47
2019-01-26T16:42:56.030Z,11.73
2019-01-26T16:45:09.688Z,14.70
2019-01-26T16:47:26.385Z,18.33
2019-01-26T16:49:43.227Z,15.63
2019-01-26T16:52:25.171Z,14.50
2019-01-26T16:54:44.333Z,14.53
2019-01-26T16:57:01.150Z,16.60
2019-01-26T17:04:25.011Z,13.17
2019-01-26T17:06:50.814Z,14.27
2019-01-26T17:09:12.813Z,13.83
2019-01-26T17:11:29.277Z,12.20
2019-01-26T17:13:45.533Z,16.77
2019-01-26T17:16:02.159Z,18.37
2019-01-26T17:18:20.673Z,27.63
2019-01-26T17:20:34.589Z,20.63
2019-01-26T17:22:32.624Z,15.43
2019-01-26T17:24:56.506Z,13.97
2019-01-26T17:27:12.805Z,14.37
2019-01-26T17:32:23.289Z,13.70
2019-01-26T17:34:40.111Z,14.20
2019-01-26T17:36:59.609Z,12.87
2019-01-26T17:39:18.783Z,11.40
2019-01-26T17:41:36.830Z,13.43
2019-01-26T17:43:55.633Z,13.23
2019-01-26T17:46:12.438Z,16.67
2019-01-26T17:48:29.641Z,15.13
2019-01-26T17:50:47.873Z,13.27
2019-01-26T17:53:05.530Z,16.73
2019-01-26T17:55:21.644Z,14.17
2019-01-26T17:57:38.345Z,16.80
2019-01-26T18:00:00.462Z,15.03
2019-01-26T18:02:20.056Z,18.07
2019-01-26T18:04:36.679Z,17.30
2019-01-26T18:06:53.279Z,16.20
2019-01-26T18:09:11.809Z,16.67
2019-01-26T18:11:33.917Z,15.27
2019-01-26T18:13:52.118Z,14.73
2019-01-26T18:16:20.129Z,15.40
2019-01-26T18:18:37.258Z,14.87
2019-01-26T18:20:55.662Z,22.03
2019-01-26T18:25:57.218Z,15.40
2019-01-26T18:28:13.743Z,15.20
2019-01-26T18:30:27.793Z,15.20
2019-01-26T18:32:47.746Z,19.00
2019-01-26T18:35:05.205Z,15.07
2019-01-26T18:37:13.258Z,18.43
2019-01-26T18:42:28.381Z,20.73
2019-01-26T18:44:46.375Z,15.97
2019-01-26T18:47:04.271Z,18.87
2019-01-26T18:49:23.111Z,15.07
2019-01-26T18:51:39.379Z,15.60
2019-01-26T18:54:01.758Z,15.10
2019-01-26T18:56:10.884Z,11.90
2019-01-26T18:58:34.737Z,12.67
2019-01-26T19:00:58.564Z,14.13
2019-01-26T19:03:17.210Z,14.33
2019-01-26T19:05:35.877Z,13.73
2019-01-26T19:07:55.255Z,11.30
2019-01-26T19:10:13.426Z,16.73
2019-01-26T19:12:30.473Z,13.40
2019-01-26T19:14:48.186Z,11.10
2019-01-26T19:17:10.006Z,14.73
2019-01-26T19:19:23.987Z,13.23
2019-01-26T19:22:01.750Z,14.53
2019-01-26T19:24:17.133Z,13.20
2019-01-26T19:26:44.055Z,12.90
2019-01-26T19:29:13.854Z,12.80
2019-01-26T19:31:19.578Z,11.47
2019-01-26T19:33:43.388Z,17.60
2019-01-26T19:36:43.126Z,14.97
2019-01-26T19:38:47.330Z,11.87
2019-01-26T19:41:06.853Z,13.17
2019-01-26T19:43:26.292Z,14.10
2019-01-26T19:45:45.564Z,12.83
2019-01-26T19:48:25.579Z,11.50
2019-01-26T19:50:32.031Z,11.00
2019-01-26T19:52:59.450Z,11.50
2019-01-26T19:58:09.301Z,10.73
2019-01-26T20:00:35.948Z,12.00
2019-01-26T20:02:52.113Z,8.83
2019-01-26T20:05:14.491Z,9.67
2019-01-26T20:07:33.171Z,10.37
2019-01-26T20:10:00.182Z,11.30
2019-01-26T20:12:16.579Z,9.90
2019-01-26T20:17:16.599Z,10.03
2019-01-26T20:19:33.541Z,8.60
2019-01-26T20:22:09.227Z,9.07
2019-01-26T20:24:22.914Z,9.00
2019-01-26T20:26:42.663Z,9.03
2019-01-26T20:28:58.954Z,8.90
2019-01-26T20:31:21.060Z,9.03
2019-01-26T20:33:35.466Z,8.70
2019-01-26T20:35:53.376Z,9.27
2019-01-26T20:38:09.362Z,8.47
2019-01-26T20:40:25.990Z,11.93
2019-01-26T20:42:42.659Z,8.53
2019-01-26T20:45:02.066Z,9.63
2019-01-26T20:47:26.997Z,8.20
2019-01-26T20:49:46.570Z,9.57
2019-01-26T20:52:03.099Z,11.83
2019-01-26T20:54:19.335Z,9.73
2019-01-26T20:56:42.913Z,11.37
2019-01-26T20:58:52.828Z,10.87
2019-01-26T21:01:18.391Z,9.67
2019-01-26T21:03:42.222Z,9.73
2019-01-26T21:06:06.082Z,11.30
2019-01-26T21:08:46.929Z,11.20
2019-01-26T21:13:35.233Z,9.90
2019-01-26T21:15:51.726Z,10.80
2019-01-26T21:18:08.086Z,11.07
2019-01-26T21:20:32.409Z,11.03
2019-01-26T21:23:07.875Z,14.50
2019-01-26T21:25:16.349Z,9.57
2019-01-26T21:30:49.053Z,8.87
2019-01-26T21:33:31.967Z,10.37
2019-01-26T21:35:58.126Z,12.33
2019-01-26T21:41:06.710Z,10.20
2019-01-26T21:43:14.331Z,9.30
2019-01-26T21:45:34.141Z,8.10
2019-01-26T21:47:51.737Z,9.90
2019-01-26T21:50:27.516Z,10.73
2019-01-26T21:52:43.846Z,10.40
2019-01-26T21:58:38.852Z,10.17
2019-01-26T22:01:35.641Z,12.77
2019-01-26T22:06:25.068Z,11.10
2019-01-26T22:14:59.238Z,9.83
2019-01-26T22:17:23.766Z,12.07
2019-01-26T22:20:05.838Z,9.70
2019-01-26T22:22:33.373Z,16.03
2019-01-26T22:25:18.443Z,11.17
2019-01-26T22:27:28.638Z,16.40
2019-01-26T22:29:45.605Z,18.93
2019-01-26T22:34:32.938Z,15.00
2019-01-26T22:36:49.602Z,12.17
2019-01-26T22:39:14.983Z,12.13
2019-01-26T22:41:31.358Z,12.50
2019-01-26T22:43:51.348Z,17.00
2019-01-26T22:46:11.906Z,11.57
2019-01-26T22:48:28.057Z,13.30
2019-01-26T22:50:44.652Z,13.37
2019-01-26T22:53:01.340Z,13.90
2019-01-26T22:55:21.270Z,9.97
2019-01-26T22:58:17.089Z,13.57
2019-01-26T23:01:07.422Z,12.00
2019-01-26T23:03:12.390Z,11.50
2019-01-26T23:05:56.546Z,11.60
2019-01-26T23:08:16.170Z,10.33
2019-01-26T23:10:34.010Z,9.50
2019-01-26T23:12:50.507Z,11.33
2019-01-26T23:15:09.541Z,12.10
2019-01-26T23:17:28.767Z,11.47
2019-01-26T23:19:49.834Z,11.40
2019-01-26T23:22:23.603Z,12.10
2019-01-26T23:24:57.676Z,10.63
2019-01-26T23:27:40.571Z,11.93
2019-01-26T23:29:56.982Z,11.20
2019-01-26T23:34:34.050Z,13.20
2019-01-26T23:36:50.088Z,13.57
2019-01-26T23:39:07.993Z,11.93
2019-01-26T23:41:15.031Z,12.33
2019-01-26T23:46:15.719Z,10.23
2019-01-26T23:48:37.729Z,10.97
2019-01-26T23:50:57.238Z,10.37
2019-01-26T23:53:15.141Z,9.47
2019-01-26T23:55:32.259Z,11.47
2019-01-26T23:57:53.098Z,9.20
